Time;durP1;ratioP1;P1;durP2;ratioP2;P2;SDS_P1;SDS_P2;PMS_P1;PMS_P2;Temp;Humidity;BMP_temperature;BMP_pressure;BME280_temperature;BME280_humidity;BME280_pressure;Samples;Min_cycle;Max_cycle;Signal;HPM_P1;HPM_P2
2023/02/11 00:00:48;;;;;;;51.47;26.42;;;-1.00;1.00;;;;;;7390602;19;20655;-72
2023/02/11 00:03:19;;;;;;;49.95;25.45;;;-1.10;1.00;;;;;;7391597;19;20022;-71
2023/02/11 00:05:58;;;;;;;47.55;24.65;;;-1.20;1.00;;;;;;7391026;19;20036;-71
2023/02/11 00:08:28;;;;;;;47.70;25.55;;;-1.20;1.00;;;;;;7390393;19;20360;-71
2023/02/11 00:10:59;;;;;;;45.13;25.02;;;-1.30;1.00;;;;;;7391193;19;20018;-71
2023/02/11 00:13:32;;;;;;;51.83;24.77;;;-1.30;1.00;;;;;;7391120;19;20038;-72
2023/02/11 00:16:02;;;;;;;48.47;23.90;;;-1.30;1.00;;;;;;7391028;19;20419;-71
2023/02/11 00:18:32;;;;;;;45.38;22.30;;;-1.20;1.00;;;;;;7389553;19;20022;-71
2023/02/11 00:21:02;;;;;;;42.90;21.88;;;-1.10;1.00;;;;;;7390399;19;20025;-71
2023/02/11 00:23:32;;;;;;;43.50;20.50;;;-0.90;1.00;;;;;;7390600;19;20015;-71
2023/02/11 00:26:02;;;;;;;39.35;20.27;;;-0.80;1.00;;;;;;7390716;19;20014;-72
2023/02/11 00:28:34;;;;;;;38.92;20.17;;;-0.80;1.00;;;;;;7389396;19;20494;-72
2023/02/11 00:31:04;;;;;;;40.17;20.27;;;-0.80;1.00;;;;;;7390246;19;20014;-72
2023/02/11 00:33:34;;;;;;;43.80;22.00;;;-0.80;1.00;;;;;;7390014;19;20109;-71
2023/02/11 00:36:06;;;;;;;46.08;21.67;;;-0.70;1.00;;;;;;7389791;19;20018;-71
2023/02/11 00:38:36;;;;;;;39.75;21.48;;;-0.60;1.00;;;;;;7389278;19;20025;-70
2023/02/11 00:41:06;;;;;;;43.25;22.00;;;-0.70;1.00;;;;;;7389803;19;20069;-71
2023/02/11 00:43:38;;;;;;;41.97;20.85;;;-0.70;1.00;;;;;;7389765;19;20022;-72
2023/02/11 00:46:09;;;;;;;45.80;22.40;;;-0.70;1.00;;;;;;7389993;19;20081;-71
2023/02/11 00:48:39;;;;;;;43.30;23.17;;;-0.70;1.00;;;;;;7386758;19;20031;-71
2023/02/11 00:51:09;;;;;;;54.10;24.35;;;-0.80;1.00;;;;;;7389824;19;20050;-72
2023/02/11 00:53:40;;;;;;;52.53;25.30;;;-0.80;1.00;;;;;;7388468;19;20370;-72
2023/02/11 00:56:10;;;;;;;45.92;22.92;;;-0.70;1.00;;;;;;7389717;19;20014;-71
2023/02/11 00:58:42;;;;;;;44.58;23.90;;;-0.80;1.00;;;;;;7388789;19;20010;-72
2023/02/11 01:01:12;;;;;;;48.40;24.05;;;-0.80;1.00;;;;;;7390546;19;20010;-71
2023/02/11 01:03:42;;;;;;;49.72;25.00;;;-0.80;1.00;;;;;;7389203;19;20043;-71
2023/02/11 01:06:12;;;;;;;45.08;24.60;;;-0.80;1.00;;;;;;7389426;19;20474;-71
2023/02/11 01:08:42;;;;;;;48.28;24.52;;;-0.80;1.00;;;;;;7387931;19;20018;-71
2023/02/11 01:11:16;;;;;;;50.53;25.45;;;-0.90;1.00;;;;;;7387914;19;20018;-72
2023/02/11 01:13:49;;;;;;;47.05;25.02;;;-0.90;1.00;;;;;;7388880;19;20014;-71
2023/02/11 01:16:20;;;;;;;45.45;25.58;;;-0.90;1.00;;;;;;7387467;19;20460;-71
2023/02/11 01:18:50;;;;;;;49.13;24.52;;;-0.90;1.00;;;;;;7387709;19;20125;-71
2023/02/11 01:21:20;;;;;;;49.35;25.65;;;-0.90;1.00;;;;;;7388875;19;20010;-71
2023/02/11 01:23:50;;;;;;;50.13;24.20;;;-0.90;1.00;;;;;;7388709;19;20014;-71
2023/02/11 01:26:20;;;;;;;47.33;25.45;;;-0.90;1.00;;;;;;7389017;19;20015;-71
2023/02/11 01:28:53;;;;;;;49.83;25.65;;;-0.90;1.00;;;;;;7388158;19;20029;-71
2023/02/11 01:31:22;;;;;;;49.63;26.75;;;-0.90;1.00;;;;;;7388487;19;20025;-71
2023/02/11 01:33:52;;;;;;;53.28;25.55;;;-0.90;1.00;;;;;;7388348;19;20018;-72
2023/02/11 01:36:22;;;;;;;45.70;24.40;;;-0.90;1.00;;;;;;7388539;19;20014;-71
2023/02/11 01:38:52;;;;;;;48.42;25.23;;;-1.00;1.00;;;;;;7387295;19;20045;-72
2023/02/11 01:41:22;;;;;;;49.47;24.63;;;-1.00;1.00;;;;;;7388569;19;20077;-71
2023/02/11 01:43:54;;;;;;;56.55;27.90;;;-1.00;1.00;;;;;;7386036;19;20011;-71
2023/02/11 01:46:34;;;;;;;48.40;25.85;;;-0.90;1.00;;;;;;7388403;19;20465;-71
2023/02/11 01:49:08;;;;;;;53.83;26.05;;;-0.90;1.00;;;;;;7386765;19;20021;-71
2023/02/11 01:51:41;;;;;;;44.03;23.90;;;-0.90;1.00;;;;;;7388196;19;20030;-71
2023/02/11 01:59:53;;;;;;;48.95;25.60;;;-0.70;1.00;;;;;;7387811;19;20018;-71
2023/02/11 02:02:28;;;;;;;54.22;25.08;;;-0.80;1.00;;;;;;7398269;19;20498;-71
2023/02/11 02:05:05;;;;;;;45.03;24.67;;;-0.80;1.00;;;;;;7394103;19;20856;-71
2023/02/11 02:07:40;;;;;;;48.25;25.23;;;-0.80;1.00;;;;;;7395558;19;20020;-71
2023/02/11 02:10:15;;;;;;;53.83;24.60;;;-0.80;1.00;;;;;;7392475;19;20102;-71
2023/02/11 02:12:45;;;;;;;51.25;25.23;;;-0.80;1.00;;;;;;7395363;19;20030;-71
2023/02/11 02:15:30;;;;;;;53.20;25.90;;;-0.80;1.00;;;;;;7393208;19;20026;-72
2023/02/11 02:18:05;;;;;;;48.33;24.90;;;-0.80;1.00;;;;;;7394782;19;20007;-72
2023/02/11 02:21:04;;;;;;;52.47;25.33;;;-0.70;1.00;;;;;;7391827;19;20035;-72
2023/02/11 02:23:49;;;;;;;45.17;24.08;;;-0.70;1.00;;;;;;7392035;19;20019;-72
2023/02/11 02:26:54;;;;;;;47.17;25.65;;;-0.70;1.00;;;;;;7393445;19;20014;-71
2023/02/11 02:29:39;;;;;;;46.28;24.30;;;-0.80;1.00;;;;;;7392556;19;20367;-71
2023/02/11 02:32:38;;;;;;;47.60;23.90;;;-0.80;1.00;;;;;;7394546;19;20042;-70
2023/02/11 02:35:17;;;;;;;51.22;26.02;;;-0.80;1.00;;;;;;7393964;19;20057;-70
2023/02/11 02:37:53;;;;;;;44.95;24.45;;;-0.80;1.00;;;;;;7394178;19;20022;-70
2023/02/11 02:40:28;;;;;;;49.25;25.17;;;-0.80;1.00;;;;;;7391463;19;20014;-71
2023/02/11 02:42:59;;;;;;;53.42;24.60;;;-0.90;1.00;;;;;;7392832;19;20077;-71
2023/02/11 02:45:29;;;;;;;51.42;25.83;;;-0.80;1.00;;;;;;7394007;19;20020;-72
2023/02/11 02:48:01;;;;;;;48.15;25.10;;;-0.80;1.00;;;;;;7393873;19;20018;-72
2023/02/11 02:50:34;;;;;;;45.28;24.80;;;-0.80;1.00;;;;;;7389695;19;20011;-72
2023/02/11 02:53:23;;;;;;;52.10;25.63;;;-0.80;1.00;;;;;;7393889;19;20011;-72
2023/02/11 02:56:02;;;;;;;44.30;24.48;;;-0.90;1.00;;;;;;7394240;19;20490;-72
2023/02/11 02:58:45;;;;;;;49.78;25.73;;;-0.90;1.00;;;;;;7390844;19;20014;-72
2023/02/11 03:01:28;;;;;;;48.28;26.33;;;-0.80;1.00;;;;;;7395085;19;20015;-72
2023/02/11 03:04:07;;;;;;;51.13;26.15;;;-0.80;1.00;;;;;;7391509;19;20081;-72
2023/02/11 03:06:47;;;;;;;49.55;25.25;;;-0.80;1.00;;;;;;7392068;19;20041;-72
2023/02/11 03:09:23;;;;;;;45.33;25.00;;;-0.90;1.00;;;;;;7391334;19;20093;-72
2023/02/11 03:11:53;;;;;;;51.25;25.20;;;-0.90;1.00;;;;;;7391448;19;20040;-72
2023/02/11 03:14:25;;;;;;;48.95;25.83;;;-0.90;1.00;;;;;;7392678;19;20023;-72
2023/02/11 03:16:59;;;;;;;49.20;23.77;;;-0.90;1.00;;;;;;7393624;19;20034;-72
2023/02/11 03:19:36;;;;;;;49.10;25.30;;;-0.90;1.00;;;;;;7389556;19;20022;-72
2023/02/11 03:22:10;;;;;;;48.20;25.20;;;-0.80;1.00;;;;;;7393149;19;20018;-72
2023/02/11 03:24:42;;;;;;;51.80;25.13;;;-0.90;1.00;;;;;;7390455;19;20021;-72
2023/02/11 03:27:21;;;;;;;50.13;24.10;;;-0.90;1.00;;;;;;7392869;19;20011;-72
2023/02/11 03:29:55;;;;;;;51.55;26.35;;;-0.90;1.00;;;;;;7390761;19;20018;-72
2023/02/11 03:32:30;;;;;;;48.90;25.13;;;-0.80;1.00;;;;;;7392781;19;20488;-71
2023/02/11 03:35:05;;;;;;;;;;;-0.80;1.00;;;;;;7392879;19;20109;-71
2023/02/11 03:37:39;;;;;;;48.58;23.50;;;-0.80;1.00;;;;;;7392349;19;20391;-72
2023/02/11 03:40:11;;;;;;;46.17;24.23;;;-0.80;1.00;;;;;;7389984;19;20018;-71
2023/02/11 03:42:47;;;;;;;43.45;24.67;;;-0.80;1.00;;;;;;7391715;19;20024;-71
2023/02/11 03:45:20;;;;;;;46.78;23.88;;;-0.80;1.00;;;;;;7392392;19;20122;-72
2023/02/11 03:47:54;;;;;;;52.58;25.42;;;-0.70;1.00;;;;;;7391877;19;20035;-72
2023/02/11 03:50:30;;;;;;;42.17;23.90;;;-0.80;1.00;;;;;;7389310;19;20018;-72
2023/02/11 03:53:02;;;;;;;45.70;24.25;;;-0.70;1.00;;;;;;7391574;19;20014;-71
2023/02/11 03:55:34;;;;;;;47.63;23.75;;;-0.70;1.00;;;;;;7391566;19;20503;-72
2023/02/11 03:58:04;;;;;;;45.47;24.88;;;-0.70;1.00;;;;;;7391643;19;20499;-71
2023/02/11 04:00:36;;;;;;;45.72;24.67;;;-0.70;1.00;;;;;;7388991;19;20014;-72
2023/02/11 04:03:06;;;;;;;43.95;22.42;;;-0.60;1.00;;;;;;7391136;19;20022;-70
2023/02/11 04:05:39;;;;;;;47.35;23.00;;;-0.60;1.00;;;;;;7390955;19;20685;-71
2023/02/11 04:08:08;;;;;;;46.97;23.77;;;-0.60;1.00;;;;;;7391527;19;20020;-71
2023/02/11 04:10:39;;;;;;;40.10;22.42;;;-0.50;1.00;;;;;;7388697;19;20035;-71
2023/02/11 04:13:08;;;;;;;41.30;23.08;;;-0.50;1.00;;;;;;7391168;19;20010;-71
2023/02/11 04:15:38;;;;;;;45.90;23.95;;;-0.50;1.00;;;;;;7390792;19;20013;-71
2023/02/11 04:18:08;;;;;;;40.88;22.33;;;-0.50;1.00;;;;;;7390821;19;20482;-71
2023/02/11 04:20:40;;;;;;;46.33;23.27;;;-0.50;1.00;;;;;;7388385;19;20018;-71
2023/02/11 04:23:11;;;;;;;49.55;22.50;;;-0.40;1.00;;;;;;7390387;19;20478;-71
2023/02/11 04:25:41;;;;;;;41.22;21.95;;;-0.50;1.00;;;;;;7388537;19;20382;-71
2023/02/11 04:28:11;;;;;;;42.45;22.25;;;-0.40;1.00;;;;;;7390553;19;20497;-71
2023/02/11 04:30:40;;;;;;;44.22;22.48;;;-0.40;1.00;;;;;;7387810;19;20014;-71
2023/02/11 04:33:10;;;;;;;42.92;21.17;;;-0.30;1.00;;;;;;7389107;19;20011;-72
2023/02/11 04:35:43;;;;;;;41.42;21.92;;;-0.30;1.00;;;;;;7390118;19;20431;-71
2023/02/11 04:38:12;;;;;;;45.95;21.85;;;-0.30;1.00;;;;;;7389940;19;20478;-70
2023/02/11 04:40:42;;;;;;;39.95;21.60;;;-0.30;1.00;;;;;;7386609;19;20412;-70
2023/02/11 04:43:12;;;;;;;43.63;22.35;;;-0.20;1.00;;;;;;7390173;19;20011;-70
2023/02/11 04:45:42;;;;;;;41.53;20.50;;;-0.10;1.00;;;;;;7389799;19;20502;-71
2023/02/11 04:48:12;;;;;;;40.03;20.95;;;-0.10;1.00;;;;;;7390070;19;20077;-72
2023/02/11 04:50:44;;;;;;;45.15;22.65;;;-0.10;1.00;;;;;;7387626;19;20025;-71
2023/02/11 04:53:14;;;;;;;42.35;22.25;;;-0.10;1.00;;;;;;7390647;19;20017;-71
2023/02/11 04:55:44;;;;;;;42.20;23.48;;;-0.10;1.00;;;;;;7389487;19;20035;-71
2023/02/11 04:58:14;;;;;;;39.42;21.55;;;-0.20;1.00;;;;;;7389486;19;20014;-70
2023/02/11 05:00:43;;;;;;;44.28;22.70;;;-0.20;1.00;;;;;;7388144;19;20479;-72
2023/02/11 05:03:13;;;;;;;40.83;21.80;;;-0.10;1.00;;;;;;7389422;19;20022;-71
2023/02/11 05:05:46;;;;;;;40.65;22.48;;;-0.10;1.00;;;;;;7387444;19;20031;-71
2023/02/11 05:08:16;;;;;;;42.67;23.08;;;-0.10;1.00;;;;;;7389136;19;20014;-71
2023/02/11 05:10:48;;;;;;;47.67;23.92;;;-0.10;1.00;;;;;;7387103;19;20022;-71
2023/02/11 05:13:18;;;;;;;41.88;22.08;;;-0.10;1.00;;;;;;7389095;19;20485;-71
2023/02/11 05:15:47;;;;;;;39.22;22.10;;;-0.10;1.00;;;;;;7388906;19;20017;-72
2023/02/11 05:18:18;;;;;;;38.95;22.05;;;-0.10;1.00;;;;;;7388458;19;20011;-71
2023/02/11 05:20:50;;;;;;;41.60;22.38;;;-0.10;1.00;;;;;;7387063;19;20025;-71
2023/02/11 05:23:20;;;;;;;44.15;22.85;;;-0.10;1.00;;;;;;7388984;19;20022;-71
2023/02/11 05:25:50;;;;;;;42.55;22.40;;;0.00;1.00;;;;;;7386767;19;20014;-71
2023/02/11 05:28:20;;;;;;;35.78;20.92;;;0.00;1.00;;;;;;7388297;19;20031;-72
2023/02/11 05:30:50;;;;;;;46.08;23.48;;;-0.10;1.00;;;;;;7388425;19;20429;-71
2023/02/11 05:33:20;;;;;;;42.15;22.33;;;-0.10;1.00;;;;;;7388577;19;20042;-71
2023/02/11 05:35:53;;;;;;;41.33;21.88;;;-0.10;1.00;;;;;;7400334;19;20022;-71
2023/02/11 05:38:23;;;;;;;40.95;23.38;;;0.00;1.00;;;;;;7402102;19;20014;-71
2023/02/11 05:40:52;;;;;;;42.63;23.05;;;0.00;1.00;;;;;;7402291;19;20014;-71
2023/02/11 05:43:22;;;;;;;36.80;21.45;;;0.00;1.00;;;;;;7402501;19;20018;-71
2023/02/11 05:45:52;;;;;;;40.75;20.85;;;0.10;1.00;;;;;;7400699;19;20015;-71
2023/02/11 05:48:23;;;;;;;39.30;22.85;;;0.10;1.00;;;;;;7401834;19;20050;-72
2023/02/11 05:50:55;;;;;;;39.13;21.40;;;0.10;1.00;;;;;;7402396;19;20019;-72
2023/02/11 05:53:25;;;;;;;40.30;21.58;;;0.10;1.00;;;;;;7402370;19;20526;-72
2023/02/11 05:55:55;;;;;;;42.10;21.73;;;0.10;1.00;;;;;;7401821;19;20630;-72
2023/02/11 05:58:24;;;;;;;41.05;21.95;;;0.20;1.00;;;;;;7401799;19;20021;-72
2023/02/11 06:00:54;;;;;;;37.58;21.98;;;0.20;1.00;;;;;;7402867;19;20110;-71
2023/02/11 06:03:24;;;;;;;37.17;20.85;;;0.20;1.00;;;;;;7402513;19;20458;-71
2023/02/11 06:05:56;;;;;;;40.92;22.98;;;0.20;1.00;;;;;;7399916;19;20011;-71
2023/02/11 06:08:26;;;;;;;37.55;20.17;;;0.20;1.00;;;;;;7401064;19;20042;-71
2023/02/11 06:10:56;;;;;;;37.60;21.52;;;0.20;1.00;;;;;;7401587;19;20490;-70
2023/02/11 06:13:26;;;;;;;39.22;22.05;;;0.20;1.00;;;;;;7402115;19;20014;-70
2023/02/11 06:15:59;;;;;;;46.03;23.13;;;0.20;1.00;;;;;;7401622;19;20493;-72
2023/02/11 06:18:29;;;;;;;43.08;22.48;;;0.20;1.00;;;;;;7401237;19;20316;-72
2023/02/11 06:21:02;;;;;;;41.47;21.58;;;0.20;1.00;;;;;;7401049;19;20098;-71
2023/02/11 06:23:34;;;;;;;38.65;21.20;;;0.20;1.00;;;;;;7399964;19;20015;-72
2023/02/11 06:26:05;;;;;;;38.85;22.02;;;0.20;1.00;;;;;;7419192;19;20013;-72
2023/02/11 06:28:35;;;;;;;39.17;21.40;;;0.20;1.00;;;;;;7417559;19;20018;-72
2023/02/11 06:31:10;;;;;;;39.83;23.15;;;0.30;1.00;;;;;;7406941;19;20019;-70
2023/02/11 06:33:40;;;;;;;38.17;22.08;;;0.30;1.00;;;;;;7402468;19;20042;-71
2023/02/11 06:36:17;;;;;;;36.50;21.23;;;0.30;1.00;;;;;;7400008;19;20034;-71
2023/02/11 06:38:48;;;;;;;41.45;22.42;;;0.30;1.00;;;;;;7400298;19;20478;-71
2023/02/11 06:41:20;;;;;;;38.30;21.67;;;0.40;1.00;;;;;;7400526;19;20015;-71
2023/02/11 06:43:51;;;;;;;41.60;22.35;;;0.30;1.00;;;;;;7401081;19;20043;-71
2023/02/11 06:46:21;;;;;;;43.22;22.40;;;0.40;1.00;;;;;;7393058;19;20466;-71
2023/02/11 06:48:51;;;;;;;41.75;22.83;;;0.30;1.00;;;;;;7392907;19;20089;-72
2023/02/11 06:51:23;;;;;;;39.53;21.95;;;0.30;1.00;;;;;;7394000;19;20396;-71
2023/02/11 06:53:54;;;;;;;40.95;21.58;;;0.30;1.00;;;;;;7393912;19;20466;-72
2023/02/11 06:56:26;;;;;;;43.10;22.70;;;0.30;1.00;;;;;;7393686;19;20021;-70
2023/02/11 06:58:56;;;;;;;41.53;22.02;;;0.30;1.00;;;;;;7390902;19;20015;-71
2023/02/11 07:01:27;;;;;;;40.65;22.80;;;0.30;1.00;;;;;;7394905;19;20562;-71
2023/02/11 07:03:57;;;;;;;42.13;21.88;;;0.40;1.00;;;;;;7393556;19;20011;-72
2023/02/11 07:06:30;;;;;;;38.92;21.48;;;0.40;1.00;;;;;;7391154;19;20479;-71
2023/02/11 07:08:59;;;;;;;40.25;21.48;;;0.40;1.00;;;;;;7391783;19;20028;-71
2023/02/11 07:11:31;;;;;;;44.45;23.23;;;0.40;1.00;;;;;;7393208;19;20528;-70
2023/02/11 07:14:03;;;;;;;38.95;21.63;;;0.40;1.00;;;;;;7392658;19;20078;-71
2023/02/11 07:16:34;;;;;;;43.55;22.70;;;0.40;1.00;;;;;;7392852;19;20033;-72
2023/02/11 07:19:04;;;;;;;41.80;21.70;;;0.40;1.00;;;;;;7391376;19;20475;-71
2023/02/11 07:21:36;;;;;;;38.88;21.48;;;0.40;1.00;;;;;;7392649;19;20070;-70
2023/02/11 07:24:08;;;;;;;40.20;22.38;;;0.40;1.00;;;;;;7392534;19;20010;-72
2023/02/11 07:26:40;;;;;;;39.30;21.88;;;0.50;1.00;;;;;;7390443;19;20442;-72
2023/02/11 07:29:10;;;;;;;40.42;21.90;;;0.50;1.00;;;;;;7391452;19;20474;-72
2023/02/11 07:31:39;;;;;;;41.35;21.67;;;0.60;1.00;;;;;;7391430;19;20021;-72
2023/02/11 07:34:12;;;;;;;36.10;21.13;;;0.70;1.00;;;;;;7392685;19;20051;-72
2023/02/11 07:36:44;;;;;;;46.40;23.23;;;0.70;1.00;;;;;;7391891;19;20013;-71
2023/02/11 07:39:14;;;;;;;43.90;21.35;;;0.80;1.00;;;;;;7391169;19;20042;-71
2023/02/11 07:41:46;;;;;;;41.30;21.77;;;0.70;1.00;;;;;;7391673;19;20020;-70
2023/02/11 07:44:16;;;;;;;42.55;22.35;;;0.70;1.00;;;;;;7391707;19;20042;-70
2023/02/11 07:46:47;;;;;;;38.05;21.35;;;0.70;1.00;;;;;;7390208;19;20025;-71
2023/02/11 07:49:18;;;;;;;36.63;20.85;;;0.80;1.00;;;;;;7390328;19;20014;-72
2023/02/11 07:51:50;;;;;;;34.65;20.25;;;0.80;1.00;;;;;;7391415;19;20043;-72
2023/02/11 07:54:20;;;;;;;38.85;22.02;;;0.90;1.00;;;;;;7389478;19;20018;-72
2023/02/11 07:56:50;;;;;;;37.40;22.15;;;1.00;1.00;;;;;;7391748;19;20021;-71
2023/02/11 07:59:20;;;;;;;37.13;21.30;;;1.10;1.00;;;;;;7390085;19;20481;-69
2023/02/11 08:01:50;;;;;;;37.40;21.10;;;1.20;1.00;;;;;;7393921;19;20074;-72
2023/02/11 08:04:20;;;;;;;41.08;22.17;;;1.20;1.00;;;;;;7391433;19;20018;-72
2023/02/11 08:06:55;;;;;;;37.17;21.35;;;1.30;1.00;;;;;;7389610;19;20042;-73
2023/02/11 08:09:27;;;;;;;38.20;20.95;;;1.40;1.00;;;;;;7390056;19;20094;-71
2023/02/11 08:11:57;;;;;;;36.05;20.70;;;1.40;1.00;;;;;;7391095;19;20463;-72
2023/02/11 08:14:27;;;;;;;40.50;20.60;;;1.40;1.00;;;;;;7390780;19;20015;-73
2023/02/11 08:16:57;;;;;;;39.38;20.48;;;1.40;1.00;;;;;;7390912;19;20042;-71
2023/02/11 08:19:26;;;;;;;33.17;19.05;;;1.50;1.00;;;;;;7389380;19;20021;-72
2023/02/11 08:22:00;;;;;;;38.13;21.02;;;1.50;1.00;;;;;;7389235;19;20010;-72
2023/02/11 08:24:30;;;;;;;36.65;20.27;;;1.50;1.00;;;;;;7391018;19;20132;-71
2023/02/11 08:27:00;;;;;;;35.75;20.65;;;1.70;1.00;;;;;;7388537;19;20350;-73
2023/02/11 08:29:29;;;;;;;36.90;19.83;;;1.80;1.00;;;;;;7389113;19;20018;-72
2023/02/11 08:31:59;;;;;;;38.90;20.45;;;1.80;1.00;;;;;;7390235;19;20014;-71
2023/02/11 08:34:29;;;;;;;40.47;19.65;;;1.90;1.00;;;;;;7389415;19;20075;-74
2023/02/11 08:37:01;;;;;;;39.00;19.85;;;2.10;1.00;;;;;;7390092;19;20043;-71
2023/02/11 08:39:31;;;;;;;32.22;19.13;;;2.40;1.00;;;;;;7388592;19;20042;-70
2023/02/11 08:42:01;;;;;;;40.38;20.98;;;2.40;1.00;;;;;;7388558;19;20018;-74
2023/02/11 08:44:31;;;;;;;31.20;19.08;;;2.40;1.00;;;;;;7389172;19;20018;-70
2023/02/11 08:47:01;;;;;;;34.20;19.65;;;2.60;1.00;;;;;;7387255;19;20027;-72
2023/02/11 08:49:32;;;;;;;39.47;19.63;;;2.80;1.00;;;;;;7388067;19;20021;-72
2023/02/11 08:52:05;;;;;;;34.67;19.55;;;2.90;1.00;;;;;;7388087;19;20014;-72
2023/02/11 08:54:35;;;;;;;36.90;21.08;;;2.90;1.00;;;;;;7389182;19;20401;-72
2023/02/11 08:57:05;;;;;;;36.17;21.52;;;2.80;1.00;;;;;;7388925;19;20018;-72
2023/02/11 08:59:35;;;;;;;40.08;22.33;;;2.90;1.00;;;;;;7386882;19;20015;-72
2023/02/11 09:02:05;;;;;;;39.92;21.02;;;3.00;1.00;;;;;;7391795;19;20014;-74
2023/02/11 09:04:35;;;;;;;34.83;21.30;;;3.00;1.00;;;;;;7389024;19;20022;-71
2023/02/11 09:07:07;;;;;;;37.38;19.75;;;3.20;1.00;;;;;;7387731;19;20357;-72
2023/02/11 09:09:37;;;;;;;30.50;18.65;;;3.30;1.00;;;;;;7382791;19;20350;-72
2023/02/11 09:12:07;;;;;;;32.75;19.02;;;3.40;1.00;;;;;;7385719;19;20010;-73
2023/02/11 09:14:37;;;;;;;31.67;17.77;;;3.40;1.00;;;;;;7359096;19;20015;-72
2023/02/11 09:17:07;;;;;;;29.88;17.73;;;3.70;1.00;;;;;;7388219;19;20782;-73
2023/02/11 09:19:37;;;;;;;36.65;19.15;;;3.80;1.00;;;;;;7359067;19;20018;-72
2023/02/11 09:22:10;;;;;;;30.40;18.13;;;3.90;1.00;;;;;;7361129;19;20014;-71
2023/02/11 09:24:40;;;;;;;29.73;18.17;;;4.00;1.00;;;;;;7361082;19;20062;-72
2023/02/11 09:27:09;;;;;;;31.70;18.73;;;4.10;1.00;;;;;;7359668;19;20018;-72
2023/02/11 09:29:39;;;;;;;31.30;18.42;;;4.20;1.00;;;;;;7380949;19;20014;-72
2023/02/11 09:32:09;;;;;;;33.72;19.08;;;4.10;1.00;;;;;;7360696;19;20360;-71
2023/02/11 09:34:39;;;;;;;35.63;20.42;;;4.10;1.00;;;;;;7359614;19;20014;-71
2023/02/11 09:37:11;;;;;;;42.15;21.95;;;4.20;1.00;;;;;;7360496;19;20015;-72
2023/02/11 09:39:41;;;;;;;41.25;22.08;;;4.20;1.00;;;;;;7359289;19;20014;-71
2023/02/11 09:42:29;;;;;;;36.00;20.38;;;4.40;1.00;;;;;;7359833;19;20090;-71
2023/02/11 09:45:00;;;;;;;32.92;18.83;;;4.50;1.00;;;;;;7360124;19;20036;-72
2023/02/11 09:47:33;;;;;;;32.50;18.88;;;4.60;1.00;;;;;;7380002;19;20400;-71
2023/02/11 09:50:06;;;;;;;31.42;17.42;;;4.60;1.00;;;;;;7357330;19;20589;-72
2023/02/11 09:52:46;;;;;;;30.95;17.10;;;4.60;1.00;;;;;;7360307;19;20486;-72
2023/02/11 09:55:24;;;;;;;28.15;16.25;;;4.60;1.00;;;;;;7360632;19;20011;-71
2023/02/11 09:57:54;;;;;;;22.90;13.90;;;4.60;1.00;;;;;;7357197;19;20098;-72
2023/02/11 10:00:28;;;;;;;22.60;13.32;;;4.50;1.00;;;;;;7355182;19;20014;-72
2023/02/11 10:03:10;;;;;;;23.80;13.82;;;4.50;1.00;;;;;;7368381;19;20039;-71
2023/02/11 10:05:55;;;;;;;25.23;13.85;;;4.50;1.00;;;;;;7404963;19;20450;-71
2023/02/11 10:08:38;;;;;;;20.63;13.40;;;4.70;1.00;;;;;;7369106;19;20032;-69
2023/02/11 10:11:13;;;;;;;18.88;12.95;;;4.70;1.00;;;;;;7368277;19;20010;-70
2023/02/11 10:14:07;;;;;;;20.50;13.43;;;4.90;1.00;;;;;;7363476;19;20032;-71
2023/02/11 10:16:51;;;;;;;24.55;12.48;;;5.00;1.00;;;;;;7390136;19;20025;-72
2023/02/11 10:19:34;;;;;;;23.23;13.65;;;5.20;1.00;;;;;;7385315;19;20015;-72
2023/02/11 10:22:12;;;;;;;19.30;12.50;;;5.20;1.00;;;;;;7392730;19;20458;-72
2023/02/11 10:24:51;;;;;;;23.70;13.57;;;5.40;1.00;;;;;;7394083;19;20011;-72
2023/02/11 10:27:30;;;;;;;19.75;13.02;;;5.50;1.00;;;;;;7392392;19;20530;-71
2023/02/11 10:30:04;;;;;;;16.65;9.85;;;5.60;1.00;;;;;;7391135;19;20031;-71
2023/02/11 10:32:42;;;;;;;15.60;9.90;;;5.70;1.00;;;;;;7393935;19;20034;-71
2023/02/11 10:35:17;;;;;;;15.10;9.02;;;5.90;1.00;;;;;;7393365;19;20633;-72
2023/02/11 10:37:47;;;;;;;13.45;8.38;;;5.70;1.00;;;;;;7392329;19;20031;-71
2023/02/11 10:40:21;;;;;;;14.23;8.80;;;5.80;1.00;;;;;;7389185;19;20048;-72
2023/02/11 10:42:54;;;;;;;15.13;9.07;;;6.00;1.00;;;;;;7393773;19;20014;-72
2023/02/11 10:45:29;;;;;;;12.30;8.10;;;6.00;1.00;;;;;;7392842;19;20038;-72
2023/02/11 10:48:00;;;;;;;18.05;8.60;;;6.10;1.00;;;;;;7391431;19;20015;-71
2023/02/11 10:50:32;;;;;;;12.82;8.05;;;6.30;1.00;;;;;;7390429;19;20048;-72
2023/02/11 10:53:15;;;;;;;15.85;8.13;;;6.20;1.00;;;;;;7393234;19;20007;-71
2023/02/11 10:55:56;;;;;;;15.35;8.43;;;6.20;1.00;;;;;;7392324;19;20015;-72
2023/02/11 10:58:29;;;;;;;14.90;9.38;;;6.30;1.00;;;;;;7391003;19;20014;-72
2023/02/11 11:01:01;;;;;;;14.93;8.77;;;6.50;1.00;;;;;;7392981;19;20482;-72
2023/02/11 11:03:40;;;;;;;15.35;9.02;;;6.60;1.00;;;;;;7391891;19;20022;-72
2023/02/11 11:06:11;;;;;;;16.17;9.70;;;6.80;1.00;;;;;;7393135;19;20014;-71
2023/02/11 11:08:43;;;;;;;14.40;9.30;;;6.80;1.00;;;;;;7390164;19;20022;-71
2023/02/11 11:11:17;;;;;;;14.50;8.88;;;7.10;1.00;;;;;;7392143;19;20010;-73
2023/02/11 11:13:58;;;;;;;18.85;9.68;;;7.00;1.00;;;;;;7392633;19;20010;-72
2023/02/11 11:16:31;;;;;;;15.52;9.70;;;6.80;1.00;;;;;;7392411;19;20011;-72
2023/02/11 11:19:17;;;;;;;17.00;10.02;;;7.00;1.00;;;;;;7390601;19;20039;-72
2023/02/11 11:21:48;;;;;;;18.42;10.23;;;7.20;1.00;;;;;;7392007;19;20018;-71
2023/02/11 11:24:22;;;;;;;18.73;10.07;;;7.10;1.00;;;;;;7390433;19;20014;-72
2023/02/11 11:27:01;;;;;;;19.63;9.98;;;7.10;1.00;;;;;;7390200;19;20674;-71
2023/02/11 11:29:36;;;;;;;19.52;10.45;;;7.00;1.00;;;;;;7390843;19;20316;-72
2023/02/11 11:32:13;;;;;;;17.98;10.13;;;7.30;1.00;;;;;;7390228;19;20019;-72
2023/02/11 11:34:45;;;;;;;16.65;9.50;;;7.10;1.00;;;;;;7390831;19;20044;-72
2023/02/11 11:37:22;;;;;;;19.17;10.30;;;7.20;1.00;;;;;;7391026;19;20135;-72
2023/02/11 11:40:00;;;;;;;23.75;9.95;;;7.70;1.00;;;;;;7389152;19;20022;-72
2023/02/11 11:42:34;;;;;;;16.48;9.48;;;7.40;1.00;;;;;;7391085;19;20018;-72
2023/02/11 11:45:21;;;;;;;17.73;10.45;;;7.70;1.00;;;;;;7389429;19;20483;-73
2023/02/11 11:47:55;;;;;;;17.67;9.75;;;8.20;1.00;;;;;;7390193;19;20031;-71
2023/02/11 11:50:30;;;;;;;18.88;10.15;;;8.40;1.00;;;;;;7389137;19;20011;-73
2023/02/11 11:53:04;;;;;;;16.63;9.48;;;8.50;1.00;;;;;;7391184;19;20015;-73
2023/02/11 11:55:40;;;;;;;14.65;8.68;;;8.20;1.00;;;;;;7390917;19;20014;-72
2023/02/11 11:58:18;;;;;;;19.42;10.35;;;8.40;1.00;;;;;;7391062;19;20022;-72
2023/02/11 12:00:58;;;;;;;18.25;10.02;;;8.30;1.00;;;;;;7389423;19;20018;-72
2023/02/11 12:04:07;;;;;;;14.43;8.80;;;8.20;1.00;;;;;;7391582;19;20400;-72
2023/02/11 12:06:44;;;;;;;14.73;8.43;;;8.30;1.00;;;;;;7390442;19;20079;-73
2023/02/11 12:09:43;;;;;;;17.45;9.45;;;8.20;1.00;;;;;;7388403;19;20014;-72
2023/02/11 12:12:31;;;;;;;13.73;8.32;;;8.00;1.00;;;;;;7390613;19;20014;-73
2023/02/11 12:15:19;;;;;;;18.08;8.82;;;8.30;1.00;;;;;;7389979;19;20119;-72
2023/02/11 12:18:11;;;;;;;18.92;10.13;;;8.20;1.00;;;;;;7390174;19;20015;-73
2023/02/11 12:20:57;;;;;;;21.70;11.80;;;8.50;1.00;;;;;;7388203;19;20018;-74
2023/02/11 12:23:40;;;;;;;20.08;11.88;;;7.90;1.00;;;;;;7390378;19;20014;-73
2023/02/11 12:26:15;;;;;;;21.30;10.98;;;8.00;1.00;;;;;;7390333;19;20018;-72
2023/02/11 12:29:00;;;;;;;19.42;12.55;;;8.20;1.00;;;;;;7388134;19;20508;-73
2023/02/11 12:31:45;;;;;;;25.92;12.60;;;8.40;1.00;;;;;;7388582;19;20038;-72
2023/02/11 12:34:36;;;;;;;20.80;11.13;;;8.50;1.00;;;;;;7389874;19;20014;-74
2023/02/11 12:37:15;;;;;;;21.00;12.18;;;8.30;1.00;;;;;;7390123;19;20014;-73
2023/02/11 12:39:51;;;;;;;20.65;12.43;;;8.10;1.00;;;;;;7388131;19;20014;-73
2023/02/11 12:45:30;;;;;;;29.10;12.73;;;7.90;1.00;;;;;;7385514;19;20056;-74
2023/02/11 12:48:21;;;;;;;20.13;11.68;;;7.90;1.00;;;;;;7388452;19;20018;-74
2023/02/11 12:50:58;;;;;;;22.33;12.32;;;7.70;1.00;;;;;;7389244;19;20032;-72
2023/02/11 12:53:49;;;;;;;22.23;13.20;;;7.60;1.00;;;;;;7389496;19;20014;-72
2023/02/11 12:56:25;;;;;;;25.55;14.00;;;7.70;1.00;;;;;;7387620;19;20339;-74
2023/02/11 12:58:58;;;;;;;21.52;13.07;;;7.60;1.00;;;;;;7388223;19;20014;-73
2023/02/11 13:01:30;;;;;;;21.10;13.32;;;7.60;1.00;;;;;;7390505;19;20018;-73
2023/02/11 13:04:10;;;;;;;19.50;11.68;;;7.80;1.00;;;;;;7388591;19;20487;-73
2023/02/11 13:06:46;;;;;;;25.63;12.93;;;7.90;1.00;;;;;;7388497;19;20478;-73
2023/02/11 13:09:21;;;;;;;22.95;13.32;;;7.90;1.00;;;;;;7386817;19;20082;-74
2023/02/11 13:11:55;;;;;;;25.75;13.57;;;7.90;1.00;;;;;;7388576;19;20011;-73
2023/02/11 13:14:31;;;;;;;23.50;13.43;;;7.80;1.00;;;;;;7388793;19;20007;-72
2023/02/11 13:17:01;;;;;;;24.10;13.93;;;7.90;1.00;;;;;;7388404;19;20514;-73
2023/02/11 13:19:37;;;;;;;27.10;14.30;;;7.70;1.00;;;;;;7387441;19;20019;-72
2023/02/11 13:22:14;;;;;;;23.05;13.63;;;7.80;1.00;;;;;;7388441;19;20482;-74
2023/02/11 13:24:48;;;;;;;20.92;13.18;;;8.10;1.00;;;;;;7388479;19;20018;-73